EIKY/KIR METAR and TAF weather

Enter ICAO airport designator
Station Type Date Time Source
EIKY METAR 2018/06/24 19:30 UTC NOAA

EIKY 241930Z 33005KT 280V010 CAVOK 18/11 Q1025


Station Type Date Time Source
EIKY Decoded METAR 2018/06/24 19:30 UTC NOAA

Station name not available
Jun 24, 2018 - 03:30 PM EDT / 2018.06.24 1930 UTC
Wind: from the NNW (330 degrees) at 6 MPH (5 KT) (direction variable):0
Visibility: greater than 7 mile(s):0
Temperature: 64 F (18 C)
Dew Point: 51 F (11 C)
Relative Humidity: 63%
Pressure (altimeter): 30.27 in. Hg (1025 hPa)
ob: EIKY 241930Z 33005KT 280V010 CAVOK 18/11 Q1025
cycle: 19

Station Type Date Time Source
EIKY TAF UTC NOAA

Error!


Example: see airport list